createdAt,value
2018-05-21T09:12:15.208Z,21.30
2018-05-21T09:14:44.191Z,21.40
2018-05-21T09:19:41.459Z,21.60
2018-05-21T09:24:40.218Z,21.70
2018-05-21T09:27:09.693Z,21.80
2018-05-21T09:29:37.599Z,21.90
2018-05-21T09:47:31.957Z,21.80
2018-05-21T09:50:00.091Z,21.90
2018-05-21T09:54:58.860Z,22.10
2018-05-21T09:57:26.793Z,22.20
2018-05-21T09:59:56.177Z,22.30
2018-05-21T10:02:25.583Z,22.30
2018-05-21T10:04:55.115Z,22.30
2018-05-21T10:07:23.046Z,22.60
2018-05-21T10:09:51.206Z,22.60
2018-05-21T10:12:20.135Z,22.60
2018-05-21T10:14:48.095Z,22.60
2018-05-21T10:17:16.505Z,22.80
2018-05-21T10:19:44.411Z,22.90
2018-05-21T10:22:13.722Z,22.40
2018-05-21T10:24:42.291Z,22.70
2018-05-21T10:27:10.574Z,22.90
2018-05-21T10:29:38.556Z,23.00
2018-05-21T10:32:07.231Z,22.50
2018-05-21T10:47:31.438Z,23.00
2018-05-21T10:49:59.483Z,23.50
2018-05-21T10:52:30.430Z,23.30
2018-05-21T10:55:00.319Z,23.90
2018-05-21T10:57:30.216Z,23.70
2018-05-21T10:59:58.328Z,23.90
2018-05-21T11:02:28.367Z,24.10
2018-05-21T11:04:57.008Z,24.30
2018-05-21T11:07:27.296Z,24.40
2018-05-21T11:09:58.140Z,24.50
2018-05-21T11:12:27.623Z,24.70
2018-05-21T11:14:57.646Z,24.70
2018-05-21T11:17:28.616Z,24.90
2018-05-21T11:26:06.218Z,26.60
2018-05-21T11:28:37.321Z,27.10
2018-05-21T11:31:09.301Z,27.60
2018-05-21T11:46:34.858Z,31.20
2018-05-21T11:49:07.187Z,31.90
2018-05-21T11:51:37.508Z,32.10
2018-05-21T11:54:10.243Z,32.90
2018-05-21T12:09:36.510Z,36.50
2018-05-21T12:12:07.138Z,36.70
2018-05-21T12:14:36.754Z,36.80
2018-05-21T12:17:07.579Z,35.60
2018-05-21T12:19:38.469Z,35.80
2018-05-21T22:50:02.638Z,20.40
2018-05-21T22:52:30.754Z,20.70
2018-05-21T22:54:58.767Z,20.20
2018-05-21T22:57:26.704Z,20.10
2018-05-21T22:59:54.747Z,20.50
2018-05-21T23:02:24.019Z,20.10
2018-05-21T23:04:52.632Z,20.50
2018-05-21T23:09:49.690Z,20.50
2018-05-21T23:14:46.795Z,20.40
2018-05-21T23:19:43.958Z,20.50
2018-05-21T23:24:41.800Z,20.50
2018-05-21T23:29:39.168Z,20.30
2018-05-21T23:34:36.429Z,20.20
2018-05-21T23:37:04.941Z,19.80
2018-05-21T23:39:33.614Z,20.20
2018-05-21T23:51:41.875Z,19.20
2018-05-21T23:54:10.775Z,19.70
2018-05-21T23:59:07.865Z,19.80
